createdAt,value
2022-08-22T00:03:18.368Z,9.7
2022-08-22T00:09:38.950Z,62.4
2022-08-22T00:14:41.468Z,17.8
2022-08-22T00:19:43.875Z,11.4
2022-08-22T00:24:47.193Z,8.4
2022-08-22T00:29:50.236Z,9.4
2022-08-22T00:34:55.046Z,8.9
2022-08-22T00:39:59.815Z,8.9
2022-08-22T00:45:06.177Z,9.1
2022-08-22T00:50:08.666Z,9
2022-08-22T00:55:11.318Z,8.8
2022-08-22T01:00:13.590Z,8.2
2022-08-22T01:05:15.954Z,8
2022-08-22T01:10:18.759Z,8.1
2022-08-22T01:15:21.693Z,7.5
2022-08-22T01:20:24.262Z,8
2022-08-22T01:25:27.473Z,8.4
2022-08-22T01:30:31.665Z,8.4
2022-08-22T01:35:34.485Z,8.9
2022-08-22T01:40:54.512Z,9
2022-08-22T01:45:38.189Z,8.7
2022-08-22T01:50:40.765Z,8.6
2022-08-22T01:55:43.288Z,9
2022-08-22T02:00:46.880Z,9.5
2022-08-22T02:05:49.829Z,10
2022-08-22T02:10:52.678Z,9.9
2022-08-22T02:15:57.737Z,9.8
2022-08-22T02:21:01.010Z,9.7
2022-08-22T02:26:03.614Z,9.3
2022-08-22T02:31:06.501Z,9.9
2022-08-22T02:36:09.594Z,10.7
2022-08-22T02:41:13.239Z,11.4
2022-08-22T02:46:15.859Z,10.7
2022-08-22T02:51:18.292Z,10.9
2022-08-22T02:56:20.686Z,10.6
2022-08-22T03:01:24.180Z,10.9
2022-08-22T03:06:27.713Z,12.1
2022-08-22T03:11:30.477Z,11.9
2022-08-22T03:16:33.217Z,12.6
2022-08-22T03:21:35.733Z,12.7
2022-08-22T03:26:38.302Z,11.8
2022-08-22T03:31:41.330Z,19.9
2022-08-22T03:36:44.244Z,15
2022-08-22T03:41:50.201Z,12.8
2022-08-22T03:46:52.842Z,12.8
2022-08-22T03:51:55.660Z,12.8
2022-08-22T03:57:01.558Z,13.5
2022-08-22T04:02:02.486Z,13.7
2022-08-22T04:07:28.468Z,14.1
2022-08-22T04:12:06.062Z,14.4
2022-08-22T04:17:08.735Z,13.4
2022-08-22T04:22:11.878Z,13.8
2022-08-22T04:27:14.596Z,13.5
2022-08-22T04:32:17.013Z,13.3
2022-08-22T04:37:19.959Z,12.6
2022-08-22T04:42:33.933Z,12.4
2022-08-22T04:47:26.401Z,11.5
2022-08-22T04:52:30.648Z,12.5
2022-08-22T04:57:33.528Z,12.3
2022-08-22T05:02:36.019Z,13
2022-08-22T05:07:38.696Z,11.8
2022-08-22T05:12:42.099Z,12.2
2022-08-22T05:17:44.589Z,12.2
2022-08-22T05:22:47.447Z,12.5
2022-08-22T05:27:56.251Z,13
2022-08-22T05:33:00.114Z,13.3
2022-08-22T05:38:02.816Z,12.7
2022-08-22T05:43:05.690Z,12.5
2022-08-22T05:48:08.298Z,12.6
2022-08-22T05:53:10.797Z,12.9
2022-08-22T05:58:13.024Z,13.1
2022-08-22T06:03:16.110Z,12.5
2022-08-22T06:08:18.584Z,12.1
2022-08-22T06:13:25.957Z,11.7
2022-08-22T06:18:22.505Z,11.7
2022-08-22T06:23:24.828Z,11.6
2022-08-22T06:28:27.421Z,10.8
2022-08-22T06:33:29.968Z,11.5
2022-08-22T06:38:32.825Z,9.6
2022-08-22T06:43:35.833Z,9.7
2022-08-22T06:48:38.359Z,9.5
2022-08-22T06:53:49.072Z,39.5
2022-08-22T06:58:41.971Z,22.4
2022-08-22T07:03:44.507Z,20.3
2022-08-22T07:08:47.104Z,25.7
2022-08-22T07:13:49.807Z,22.6
2022-08-22T07:18:52.630Z,19.6
2022-08-22T07:23:55.028Z,25.8
2022-08-22T07:28:59.708Z,28
2022-08-22T07:33:58.742Z,25.1
2022-08-22T07:39:01.128Z,33.3
2022-08-22T07:44:03.878Z,62.1
2022-08-22T07:49:10.776Z,13.8
2022-08-22T07:54:13.505Z,8
2022-08-22T07:59:15.968Z,8.3
2022-08-22T08:04:19.075Z,8.6
2022-08-22T08:09:21.758Z,9.1
2022-08-22T08:14:24.720Z,8.4
2022-08-22T08:19:27.075Z,8.9
2022-08-22T08:24:40.172Z,9.1
2022-08-22T08:29:39.404Z,9
2022-08-22T08:34:41.936Z,9.2
2022-08-22T08:39:45.153Z,9
2022-08-22T08:44:48.060Z,8.7
2022-08-22T08:49:51.561Z,9.2
2022-08-22T08:54:55.055Z,8.9
2022-08-22T08:59:57.569Z,8.3
2022-08-22T09:05:00.079Z,8.9
2022-08-22T09:10:03.166Z,8.6
2022-08-22T09:15:15.115Z,8.3
2022-08-22T09:20:20.860Z,7.6
2022-08-22T09:25:26.674Z,8.3
2022-08-22T09:46:42.625Z,7.1
2022-08-22T09:51:47.289Z,5.9
2022-08-22T09:56:54.473Z,6.5
2022-08-22T10:01:58.651Z,5.9
2022-08-22T10:07:03.994Z,7.2
2022-08-22T10:12:04.048Z,7.3
2022-08-22T10:17:04.260Z,7.1
2022-08-22T10:22:10.089Z,7.1
2022-08-22T10:27:15.678Z,10
2022-08-22T10:32:16.259Z,6.7
2022-08-22T10:37:17.148Z,6.3
2022-08-22T10:42:30.138Z,5.9
2022-08-22T10:47:32.385Z,5.8
2022-08-22T10:52:37.625Z,6
2022-08-22T10:57:40.987Z,5.8
2022-08-22T11:02:48.504Z,6.2
2022-08-22T11:07:51.059Z,6.4
2022-08-22T11:12:55.927Z,6.4
2022-08-22T11:18:02.469Z,6.2
2022-08-22T11:23:07.212Z,6.3
2022-08-22T11:28:13.856Z,6.5
2022-08-22T11:33:19.167Z,6.1
2022-08-22T11:38:33.673Z,6.4
2022-08-22T11:43:38.502Z,6
2022-08-22T11:48:48.569Z,5.6
2022-08-22T11:53:41.288Z,5.5
2022-08-22T11:58:44.130Z,5.3
2022-08-22T12:03:55.705Z,5.8
2022-08-22T12:08:54.235Z,5.6
2022-08-22T12:14:07.284Z,5.6
2022-08-22T12:19:00.764Z,5.4
2022-08-22T12:24:19.079Z,5.4
2022-08-22T12:29:16.668Z,4.5
2022-08-22T12:34:20.286Z,4.9
2022-08-22T12:39:29.999Z,4.4
2022-08-22T12:44:33.027Z,4.7
2022-08-22T12:49:35.759Z,3.7
2022-08-22T12:54:39.229Z,4.1
2022-08-22T12:59:42.903Z,4.4
2022-08-22T13:04:46.035Z,5
2022-08-22T13:09:53.401Z,5.3
2022-08-22T13:14:56.522Z,5.2
2022-08-22T13:19:59.816Z,5.3
2022-08-22T13:25:05.876Z,5.2
2022-08-22T13:30:13.587Z,5.6
2022-08-22T13:35:16.446Z,5.5
2022-08-22T13:40:17.214Z,5.5
2022-08-22T13:45:21.410Z,5.1
2022-08-22T13:50:24.709Z,5.1
2022-08-22T13:55:30.585Z,4.8
2022-08-22T14:00:33.688Z,4.7
2022-08-22T14:05:36.994Z,4.5
2022-08-22T14:10:40.375Z,4.5
2022-08-22T14:15:47.118Z,3.9
2022-08-22T14:20:53.808Z,3.7
2022-08-22T14:25:58.463Z,3.1
2022-08-22T14:31:03.538Z,2.5
2022-08-22T14:36:06.401Z,2.7
2022-08-22T14:41:11.767Z,2.4
2022-08-22T14:46:20.857Z,4.9
2022-08-22T14:51:29.666Z,2.1
2022-08-22T14:56:33.194Z,1.8
2022-08-22T15:01:38.406Z,2.1
2022-08-22T15:06:49.319Z,2.1
2022-08-22T15:11:43.341Z,1.8
2022-08-22T15:16:47.752Z,1.7
2022-08-22T15:21:50.676Z,1.6
2022-08-22T15:26:56.564Z,1.6
2022-08-22T15:32:01.431Z,1.6
2022-08-22T15:37:13.111Z,1.5
2022-08-22T15:42:13.057Z,1.4
2022-08-22T15:47:31.608Z,1.5
2022-08-22T15:52:19.419Z,1.5
2022-08-22T15:57:22.140Z,1.3
2022-08-22T16:02:24.988Z,1.5
2022-08-22T16:07:32.244Z,1.6
2022-08-22T16:12:35.560Z,1.4
2022-08-22T16:17:38.905Z,1.6
2022-08-22T16:22:47.357Z,1.7
2022-08-22T16:27:50.180Z,1.8
2022-08-22T16:32:52.716Z,1.8
2022-08-22T16:37:55.040Z,1.7
2022-08-22T16:42:57.464Z,1.9
2022-08-22T16:47:59.805Z,2
2022-08-22T16:53:02.607Z,2
2022-08-22T16:58:08.386Z,1.9
2022-08-22T17:03:12.008Z,1.9
2022-08-22T17:08:15.643Z,1.8
2022-08-22T17:13:18.151Z,2.3
2022-08-22T17:18:20.493Z,2.3
2022-08-22T17:23:23.026Z,2.3
2022-08-22T17:28:25.336Z,2.1
2022-08-22T17:33:36.221Z,2.7
2022-08-22T17:38:39.012Z,2.4
2022-08-22T17:43:50.694Z,2.5
2022-08-22T17:48:43.250Z,2.7
2022-08-22T17:53:45.787Z,2.6
2022-08-22T17:58:48.374Z,2.9
2022-08-22T18:03:51.858Z,3.2
2022-08-22T18:09:24.314Z,3.1
2022-08-22T18:13:57.884Z,3.1
2022-08-22T18:19:06.443Z,3.2
2022-08-22T18:24:09.168Z,3.3
2022-08-22T18:29:11.671Z,5.2
2022-08-22T18:34:15.110Z,21.2
2022-08-22T18:39:19.273Z,32.9
2022-08-22T18:44:21.625Z,87.4
2022-08-22T18:49:25.936Z,44.4
2022-08-22T18:54:28.442Z,30.6
2022-08-22T18:59:30.905Z,31.7
2022-08-22T19:04:31.432Z,16.1
2022-08-22T19:09:33.702Z,17.2
2022-08-22T19:14:36.035Z,18.5
2022-08-22T19:19:38.618Z,20.7
2022-08-22T19:24:41.442Z,21.1
2022-08-22T19:29:43.881Z,19.7
2022-08-22T19:34:48.755Z,20.1
2022-08-22T19:39:55.355Z,14.4
2022-08-22T19:44:58.281Z,14.2
2022-08-22T19:50:01.160Z,10.7
2022-08-22T19:55:07.408Z,8.2
2022-08-22T20:00:09.691Z,8.9
2022-08-22T20:05:15.118Z,8.2
2022-08-22T20:10:17.448Z,8.5
2022-08-22T20:15:19.784Z,7.2
2022-08-22T20:20:36.423Z,7.2
2022-08-22T20:25:44.272Z,5.8
2022-08-22T20:30:37.606Z,6
2022-08-22T20:35:40.162Z,5.9
2022-08-22T20:41:00.512Z,6.2
2022-08-22T20:45:51.841Z,6.7
2022-08-22T20:50:55.110Z,6.3
2022-08-22T20:55:58.568Z,6.6
2022-08-22T21:01:01.319Z,9.3
2022-08-22T21:06:05.012Z,6.9
2022-08-22T21:11:09.904Z,6.8
2022-08-22T21:16:12.480Z,6.7
2022-08-22T21:21:19.742Z,6.9
2022-08-22T21:26:22.770Z,10.1
2022-08-22T21:31:23.711Z,7.3
2022-08-22T21:36:26.322Z,7
2022-08-22T21:41:28.679Z,7
2022-08-22T21:46:32.769Z,7.2
2022-08-22T21:51:35.789Z,7.5
2022-08-22T21:56:38.690Z,7.4
2022-08-22T22:01:45.913Z,7.2
2022-08-22T22:06:50.315Z,7.6
2022-08-22T22:11:52.917Z,7.6
2022-08-22T22:16:55.836Z,7.4
2022-08-22T22:21:58.605Z,7.5
2022-08-22T22:27:01.362Z,8.4
2022-08-22T22:32:03.662Z,8.6
2022-08-22T22:37:05.951Z,8.5
2022-08-22T22:42:08.231Z,9.8
2022-08-22T22:47:10.653Z,10.6
2022-08-22T22:52:13.370Z,10.9
2022-08-22T22:57:26.353Z,10.9
2022-08-22T23:02:22.091Z,11.3
2022-08-22T23:07:25.064Z,11
2022-08-22T23:12:28.520Z,10.9
2022-08-22T23:17:31.118Z,11.6
2022-08-22T23:22:33.874Z,11.3
2022-08-22T23:27:36.447Z,11.6
2022-08-22T23:32:39.055Z,11.4
2022-08-22T23:37:41.970Z,11.2
2022-08-22T23:42:44.431Z,11.5
2022-08-22T23:47:47.227Z,11.8
2022-08-22T23:52:50.144Z,11.6
2022-08-22T23:57:52.987Z,12
